Rachel, Nevada Weather observations

Data are for observation ending at time listed.
 Day   Time    Ave.   Ave.  Ave.  Vector   Max.   Stn.    Total    Solar   Ave.  
  of    of     Air    Rel.  Wind   Wind    Wind   Baro.  Precip.   Rad.    Soil  
Year   Day     Temp.  Hum.  Speed  Dir.    Gust   Pres.                    Temp. 
2026   (PST)    F      %     mph   deg.    mph     mb.     in.     W/m2     F   
------------------------------------------------------------------------------
 128   16:00   85.6     6   15.3   286     22.2   851.5    0.00     390    75.5
 128   16:10   85.5     6   12.8   278     18.3   851.5    0.00     364    75.8
 128   16:20   86.0     6   12.4   281     21.6   851.4    0.00     338    75.8
 128   16:30   85.1     6   14.9   289     23.3   851.4    0.00     312    75.5
 128   16:40   85.3     6   14.7   278     21.9   851.3    0.00     281    75.7
 128   16:50   84.8     6   14.2   287     20.5   851.3    0.00     257    75.2
 128   17:00   84.3     6   16.1   307     20.2   851.2    0.00     234    75.2
 128   17:10   84.4     6   12.8   291     19.7   851.2    0.00     209    75.1
 128   17:20   83.8     6   13.6   296     20.3   851.1    0.00     182    75.0
 128   17:30   83.1     6   13.6   297     18.5   851.0    0.00     155    74.9
 128   17:40   83.1     7   10.1   295     16.4   850.9    0.00     130    74.5
 128   17:50   82.2     7   11.7   293     16.1   850.9    0.00     107    74.6
 128   18:00   81.4     8   11.1   290     17.1   850.9    0.00      77    74.5
 128   18:10   79.6     9    8.5   290     13.7   850.9    0.00      45    74.4
 128   18:20   78.2    10    9.4   286     14.1   850.8    0.00      26    74.2
 128   18:30   77.4     9   10.0   278     14.3   850.9    0.00      13    74.0
 128   18:40   75.5     9    8.9   283     12.7   850.8    0.00       7    74.2
 128   18:50   74.0    10    8.7   277     12.0   850.5    0.00       3    74.0
 128   19:00   71.2    11    7.5   266      9.7   850.1    0.00       3    73.8
 128   19:10   70.2    10    7.6   252     10.4   849.8    0.00       0    73.7
 128   19:20   70.4    10    6.8   247      9.6   849.7    0.00       0    73.6
 128   19:30   70.1    10    7.0   242      8.8   849.9    0.00       0    73.3
 128   19:40   70.4    10    6.4   239      9.2   850.0    0.00       0    73.7
 128   19:50   70.6    10    6.7   236      8.8   849.9    0.00       0    73.2
 128   20:00   69.4    10    6.4   223      8.1   849.8    0.00       0    72.9
 128   20:10   67.5    10    6.0   215      7.2   849.8    0.00       0    72.5
 128   20:20   65.3    11    2.5   224      5.8   849.8    0.00       0    72.4
 128   20:30   61.6    12    2.2    39      4.2   850.0    0.00       0    72.2
 128   20:40   58.5    13    0.3    65      3.1   849.7    0.00       0    72.1
 128   20:50   56.5    14    2.2   108      4.4   849.5    0.00       0    72.3
 128   21:00   59.0    13    3.3   110      4.5   849.5    0.00       0    71.5
 128   21:10   58.4    13    3.5   146      4.6   849.4    0.00       0    71.5
 128   21:20   58.3    13    4.7   155      6.5   849.4    0.00       0    71.3
 128   21:30   58.4    13    5.5   179      7.5   849.2    0.00       0    71.0
 128   21:40   58.3    14    5.2   183      6.6   849.4    0.00       0    70.9
 128   21:50   57.0    14    4.1   200      5.4   849.7    0.00       0    70.5
 128   22:00   56.8    14    2.1   194      5.6   849.9    0.00       0    70.3
 128   22:10   52.2    16    4.6     3      7.3   850.0    0.00       0    70.1
 128   22:20   52.5    17    1.9   316      6.0   849.6    0.00       0    69.8
 128   22:30   53.3    16    1.3   154      4.2   849.4    0.00       0    69.6
 128   22:40   53.8    16    2.7   172      3.6   849.6    0.00       0    69.4
 128   22:50   51.9    17    3.3   151      4.7   849.5    0.00       0    69.1
 128   23:00   52.3    17    4.8   144      6.4   849.4    0.00       0    68.9
 128   23:10   53.2    17    3.3   199      5.9   849.2    0.00       0    68.8
 128   23:20   52.6    17    3.4   176      5.1   849.2    0.00       0    68.6
 128   23:30   52.5    17    3.4   138     12.7   849.2    0.00       0    68.5
 128   23:40   58.7    14    6.2   104     17.8   849.3    0.00       0    68.2
 128   23:50   62.1    13    4.1   199      6.4   849.4    0.00       0    68.5
 129    0:00   62.0    13    5.6   241      7.3   849.6    0.00       0    67.7
 129    0:10   57.8    16    5.1   237      6.6   849.7    0.00       0    67.5
 129    0:20   59.4    16    6.5   238      8.2   849.6    0.00       0    67.5
 129    0:30   57.0    17    5.6   233      7.7   849.7    0.00       0    67.2
 129    0:40   57.3    20    4.7   270      8.0   849.8    0.00       0    67.2
 129    0:50   53.0    23    2.7   270      4.7   849.8    0.00       0    66.9
 129    1:00   51.7    24    1.4   151      3.1   849.8    0.00       0    66.6
 129    1:10   52.0    23    3.7   173      4.7   849.7    0.00       0    66.6
 129    1:20   53.4    22    5.1   210      6.2   849.5    0.00       0    66.7
 129    1:30   56.4    21    6.1   218      7.2   849.5    0.00       0    66.3
 129    1:40   57.7    22    6.4   232      8.5   849.5    0.00       0    66.1
 129    1:50   58.2    22    5.4   240      7.5   849.6    0.00       0    65.8
 129    2:00   56.8    24    3.7   234      6.0   849.7    0.00       0    65.9
 129    2:10   55.7    24    2.4   219      3.4   849.8    0.00       0    65.8
 129    2:20   55.0    24    1.7   273      3.8   849.8    0.00       0    65.7
 129    2:30   50.3    26    2.0   345      4.6   849.8    0.00       0    65.6
 129    2:40   49.1    27    0.6   200      1.9   849.7    0.00       0    65.4
 129    2:50   49.7    27    1.0   268      2.9   849.5    0.00       0    65.2
 129    3:00   49.4    27    0.9   266      2.7   849.7    0.00       0    64.9
 129    3:10   49.9    28    2.1   280      3.9   849.7    0.00       0    64.8
 129    3:20   46.3    28    1.7   272      3.7   849.5    0.00       0    64.7
 129    3:30   46.7    29    1.6   310      2.9   849.4    0.00       0    64.8
 129    3:40   47.4    30    1.4   244      3.3   849.2    0.00       0    64.9
 129    3:50   46.6    30    3.4   204      4.7   849.3    0.00       0    64.3
 129    4:00   45.2    31    4.0   208      4.7   849.3    0.00       0    64.2
 129    4:10   46.3    31    5.0   225      6.0   849.3    0.00       0    64.1
 129    4:20   46.3    31    4.3   202      5.6   849.7    0.00       0    64.0
 129    4:30   47.3    30    3.7   183      4.6   849.9    0.00       0    63.8
 129    4:40   47.6    30    3.0   198      4.4   849.9    0.00       2    63.6
 129    4:50   47.2    30    2.4   222      3.3   850.0    0.00       6    63.5
 129    5:00   48.3    28    0.2   358      1.8   850.2    0.00      18    63.3
 129    5:10   49.5    28    1.4    47      3.4   850.3    0.00      39    63.4
 129    5:20   50.3    28    1.6    67      3.1   850.5    0.00      66    63.1
 129    5:30   53.4    26    0.6    83      1.9   850.7    0.00      93    63.0
 129    5:40   55.3    25    0.0     0      0.0   850.9    0.00     118    62.9
 129    5:50   56.5    23    0.8    15      3.0   851.3    0.00     144    62.9
 129    6:00   55.0    25    1.7    21      2.6   851.6    0.00     172    63.0
 129    6:10   56.0    24    1.3    63      2.7   851.8    0.00     199    62.7
 129    6:20   57.9    24    2.0    51      3.2   852.0    0.00     227    62.9
 129    6:30   59.0    23    2.7    23      4.6   852.3    0.00     256    62.9
 129    6:40   59.2    23    3.8   354      5.0   852.5    0.00     284    62.9
 129    6:50   59.5    24    3.6   344      4.7   852.8    0.00     312    63.1
 129    7:00   60.8    24    2.8   355      4.8   853.1    0.00     339    63.6
 129    7:10   62.0    22    1.3   341      3.1   853.1    0.00     367    63.5
 129    7:20   66.0    19    0.2   302      1.6   853.3    0.00     390    63.7
 129    7:30   66.4    19    0.4   309      2.3   853.6    0.00     415    64.2
 129    7:40   68.2    18    0.0     0      0.0   853.6    0.00     437    64.2
 129    7:50   71.0    16    0.1   279      1.1   853.8    0.00     459    64.7
 129    8:00   71.5    16    1.1   279      2.9   854.0    0.00     483    64.8
 129    8:10   72.3    15    0.7   242      3.3   854.1    0.00     507    65.2
 129    8:20   73.6    14    1.5   357      4.5   854.2    0.00     529    65.6
 129    8:30   73.2    15    1.6   348      4.2   854.3    0.00     551    66.2
 129    8:40   73.7    14    4.1   340      8.5   854.4    0.00     571    66.2
 129    8:50   73.2    14    4.4   359      8.2   854.5    0.00     593    66.6
 129    9:00   74.4    14    5.4   351      9.3   854.5    0.00     612    67.2
 129    9:10   75.1    13    6.4   345      9.6   854.6    0.00     631    67.8
 129    9:20   75.6    13    6.5   345     10.4   854.7    0.00     648    68.1
 129    9:30   76.3    13    6.3   353     10.2   854.7    0.00     664    68.6
 129    9:40   77.1    12    6.6    11     13.0   854.7    0.00     678    69.7
 129    9:50   77.9    12    7.3    21     13.1   854.8    0.00     691    69.8
 129   10:00   78.1    12    6.8     5     14.1   854.7    0.00     704    70.4
 129   10:10   79.3    12    8.3    17     13.7   854.6    0.00     714    71.1
 129   10:20   79.6    12    7.6    20     14.5   854.6    0.00     725    71.8
 129   10:30   79.9    11    5.4    46     12.7   854.6    0.00     733    72.4
 129   10:40   80.5    11    8.4   350     15.6   854.6    0.00     740    73.1
 129   10:50   80.0    10    7.9   344     15.1   854.5    0.00     749    73.8
 129   11:00   80.0    11    6.5   351     12.1   854.5    0.00     753    74.1
 129   11:10   80.9    10    3.2   352      9.3   854.5    0.00     756    74.7
 129   11:20   81.2    11    6.8    53     12.3   854.5    0.00     759    75.2
 129   11:30   81.3    11    6.2    58     12.2   854.5    0.00     762    75.8
 129   11:40   81.8    10    3.1   359     10.4   854.5    0.00     760    76.5
 129   11:50   82.7    10    8.3   360     16.2   854.3    0.00     759    77.0
 129   12:00   82.1    11    7.6   337     15.9   854.3    0.00     756    77.4
 129   12:10   82.4    11    6.1     9     17.2   854.3    0.00     751    77.9
 129   12:20   81.9    11   11.8    15     16.5   854.2    0.00     752    78.5
 129   12:30   82.3    11    8.3    13     14.5   854.2    0.00     745    78.2
 129   12:40   82.1    11    5.8    95     11.8   854.1    0.00     739    78.4
 129   12:50   83.6    10    4.8   254      9.1   854.0    0.00     733    78.7
 129   13:00   84.4    10    5.7   243     11.4   854.0    0.00     722    78.5
 129   13:10   84.7    10   11.4   305     20.3   854.0    0.00     718    78.5
 129   13:20   83.2     9    9.8   345     20.0   853.6    0.00     711    78.3
 129   13:30   83.4     9    6.2     3     13.4   853.3    0.00     697    78.2
 129   13:40   85.0     8    7.7   285     14.4   853.2    0.00     684    77.9
 129   13:50   85.2     8    8.4   331     18.3   853.2    0.00     664    77.9
 129   14:00   84.2     7    7.1     6     14.4   853.2    0.00     654    77.5
 129   14:10   84.1     8    7.3   353     16.7   853.2    0.00     635    77.6
 129   14:20   83.9     8    9.0   345     19.3   853.1    0.00     616    77.3
 129   14:30   84.2     7    9.5   344     19.6   852.9    0.00     597    77.3
 129   14:40   84.5     8    9.9   329     21.4   852.8    0.00     577    77.4
 129   14:50   84.5     8   10.0   337     22.9   852.7    0.00     554    77.5
 129   15:00   85.4     8    7.0   295     11.4   852.5    0.00     532    76.9
 129   15:10   84.8     9   14.8   344     23.4   852.5    0.00     508    76.6
 129   15:20   84.3     9   11.8   335     23.4   852.5    0.00     485    77.0
 129   15:30   84.3     9   14.7   358     21.6   852.4    0.00     462    76.8
 129   15:40   84.3     9   11.4    12     17.6   852.4    0.00     438    76.7
 129   15:50   84.0     9   12.4    15     20.5   852.4    0.00     413    76.6

Return to St. George, Utah graphs page.


Western Regional Climate Center,wrcc@dri.edu